createdAt,value
2022-08-28T00:00:18.473Z,1.33
2022-08-28T00:02:46.660Z,1.42
2022-08-28T00:05:15.918Z,1.13
2022-08-28T00:07:47.113Z,1.40
2022-08-28T00:10:16.937Z,1.30
2022-08-28T00:12:44.775Z,1.30
2022-08-28T00:15:16.948Z,1.65
2022-08-28T00:17:44.837Z,1.63
2022-08-28T00:20:13.665Z,1.33
2022-08-28T00:22:41.240Z,1.90
2022-08-28T00:25:10.745Z,1.25
2022-08-28T00:27:53.440Z,1.30
2022-08-28T00:30:29.883Z,1.73
2022-08-28T00:32:59.855Z,1.38
2022-08-28T00:35:27.134Z,1.30
2022-08-28T00:37:54.986Z,1.48
2022-08-28T00:40:28.963Z,1.20
2022-08-28T00:43:00.914Z,1.40
2022-08-28T00:45:28.178Z,1.00
2022-08-28T00:47:54.936Z,1.45
2022-08-28T00:50:28.154Z,1.30
2022-08-28T00:53:00.770Z,1.45
2022-08-28T00:55:28.543Z,1.30
2022-08-28T00:57:59.063Z,1.63
2022-08-28T01:00:36.030Z,1.15
2022-08-28T01:03:03.677Z,2.17
2022-08-28T01:05:30.465Z,1.42
2022-08-28T01:08:01.244Z,1.58
2022-08-28T01:10:30.789Z,1.40
2022-08-28T01:12:58.315Z,1.55
2022-08-28T01:15:31.870Z,2.35
2022-08-28T01:18:07.826Z,2.10
2022-08-28T01:20:38.100Z,1.58
2022-08-28T01:23:33.704Z,1.67
2022-08-28T01:26:00.600Z,1.75
2022-08-28T01:28:27.968Z,1.95
2022-08-28T01:30:55.230Z,1.90
2022-08-28T01:33:24.297Z,1.40
2022-08-28T01:35:54.987Z,1.60
2022-08-28T01:38:22.029Z,1.40
2022-08-28T01:40:54.615Z,2.03
2022-08-28T01:43:24.356Z,1.63
2022-08-28T01:45:54.239Z,1.73
2022-08-28T01:48:23.474Z,1.38
2022-08-28T01:50:50.780Z,1.45
2022-08-28T01:53:19.608Z,2.00
2022-08-28T01:55:53.452Z,1.75
2022-08-28T01:58:21.046Z,1.65
2022-08-28T02:00:47.765Z,1.58
2022-08-28T02:03:14.677Z,1.88
2022-08-28T02:05:41.744Z,1.88
2022-08-28T02:08:08.806Z,2.63
2022-08-28T02:10:37.854Z,2.13
2022-08-28T02:13:06.065Z,1.92
2022-08-28T02:15:34.254Z,1.63
2022-08-28T02:18:00.885Z,2.10
2022-08-28T02:20:29.137Z,2.47
2022-08-28T02:22:57.705Z,1.95
2022-08-28T02:25:24.904Z,1.83
2022-08-28T02:27:51.553Z,2.35
2022-08-28T02:30:18.459Z,2.10
2022-08-28T02:32:46.194Z,2.25
2022-08-28T02:35:15.975Z,2.00
2022-08-28T02:37:44.334Z,1.90
2022-08-28T02:40:14.315Z,2.58
2022-08-28T02:42:42.086Z,2.78
2022-08-28T02:45:11.390Z,2.33
2022-08-28T02:47:39.985Z,2.40
2022-08-28T02:50:07.492Z,2.20
2022-08-28T02:52:36.998Z,2.15
2022-08-28T02:55:08.309Z,2.17
2022-08-28T02:57:35.312Z,2.83
2022-08-28T03:00:04.465Z,2.38
2022-08-28T03:02:31.764Z,2.47
2022-08-28T03:04:59.830Z,2.30
2022-08-28T03:07:28.060Z,3.00
2022-08-28T03:09:55.033Z,2.85
2022-08-28T03:12:24.171Z,2.78
2022-08-28T03:14:52.297Z,2.60
2022-08-28T03:17:19.555Z,2.67
2022-08-28T03:19:46.164Z,2.70
2022-08-28T03:22:12.792Z,3.70
2022-08-28T03:24:39.391Z,2.88
2022-08-28T03:27:05.934Z,2.80
2022-08-28T03:29:32.488Z,2.85
2022-08-28T03:31:59.490Z,3.05
2022-08-28T03:34:26.053Z,2.90
2022-08-28T03:36:52.666Z,4.10
2022-08-28T03:39:19.492Z,3.38
2022-08-28T03:41:46.004Z,3.15
2022-08-28T03:44:12.553Z,3.03
2022-08-28T03:46:39.120Z,2.95
2022-08-28T03:49:06.085Z,3.22
2022-08-28T03:51:34.293Z,2.53
2022-08-28T03:54:02.051Z,3.28
2022-08-28T03:56:30.345Z,3.05
2022-08-28T03:58:59.250Z,2.67
2022-08-28T04:01:26.261Z,3.47
2022-08-28T04:03:52.871Z,2.63
2022-08-28T04:06:20.508Z,3.70
2022-08-28T04:08:47.839Z,3.08
2022-08-28T04:11:14.460Z,2.97
2022-08-28T04:13:42.080Z,2.92
2022-08-28T04:16:12.004Z,3.53
2022-08-28T04:18:40.637Z,2.92
2022-08-28T04:21:12.152Z,3.15
2022-08-28T04:23:40.048Z,2.67
2022-08-28T04:26:11.163Z,2.88
2022-08-28T04:28:37.727Z,3.00
2022-08-28T04:31:05.132Z,2.80
2022-08-28T04:33:32.854Z,2.88
2022-08-28T04:36:06.966Z,2.45
2022-08-28T04:38:34.114Z,3.00
2022-08-28T04:41:05.266Z,3.03
2022-08-28T04:43:32.045Z,3.55
2022-08-28T04:45:59.834Z,3.00
2022-08-28T04:48:26.442Z,3.40
2022-08-28T04:50:52.978Z,3.05
2022-08-28T04:53:20.389Z,3.10
2022-08-28T04:55:55.026Z,2.67
2022-08-28T04:58:23.681Z,3.00
2022-08-28T05:00:52.042Z,3.03
2022-08-28T05:03:18.654Z,3.03
2022-08-28T05:05:51.913Z,2.70
2022-08-28T05:08:22.383Z,2.90
2022-08-28T05:10:49.315Z,2.97
2022-08-28T05:13:18.175Z,2.83
2022-08-28T05:15:47.599Z,2.85
2022-08-28T05:18:15.349Z,2.58
2022-08-28T05:20:45.239Z,2.40
2022-08-28T05:23:13.537Z,2.88
2022-08-28T05:25:43.652Z,2.60
2022-08-28T05:28:14.949Z,2.70
2022-08-28T05:30:43.805Z,2.58
2022-08-28T05:33:13.437Z,2.40
2022-08-28T05:35:44.189Z,2.85
2022-08-28T05:38:15.958Z,3.17
2022-08-28T05:40:47.738Z,2.30
2022-08-28T05:43:19.925Z,2.10
2022-08-28T05:45:58.040Z,2.67
2022-08-28T05:48:32.953Z,2.60
2022-08-28T05:51:12.435Z,2.92
2022-08-28T05:53:41.914Z,2.53
2022-08-28T05:56:14.555Z,2.58
2022-08-28T05:58:43.728Z,2.53
2022-08-28T06:01:31.889Z,2.65
2022-08-28T06:04:02.677Z,1.75
2022-08-28T06:06:31.636Z,2.03
2022-08-28T06:09:01.754Z,2.90
2022-08-28T06:11:30.924Z,2.30
2022-08-28T06:14:09.471Z,2.45
2022-08-28T06:16:42.870Z,2.25
2022-08-28T06:19:11.237Z,2.83
2022-08-28T06:21:41.261Z,2.15
2022-08-28T06:24:09.548Z,2.00
2022-08-28T06:26:36.492Z,1.90
2022-08-28T06:29:06.082Z,2.67
2022-08-28T06:31:33.719Z,2.22
2022-08-28T06:34:01.462Z,2.85
2022-08-28T06:36:30.680Z,2.50
2022-08-28T06:39:00.048Z,2.78
2022-08-28T06:41:29.280Z,2.13
2022-08-28T06:43:56.354Z,2.55
2022-08-28T06:46:23.269Z,2.75
2022-08-28T06:48:49.878Z,3.05
2022-08-28T06:51:16.814Z,2.30
2022-08-28T06:53:46.557Z,2.00
2022-08-28T06:56:26.066Z,1.95
2022-08-28T06:58:55.845Z,2.17
2022-08-28T07:01:29.464Z,2.30
2022-08-28T07:03:59.609Z,1.90
2022-08-28T07:06:27.264Z,2.50
2022-08-28T07:08:54.054Z,2.10
2022-08-28T07:11:26.022Z,2.20
2022-08-28T07:13:54.077Z,2.13
2022-08-28T07:16:23.998Z,1.90
2022-08-28T07:18:50.610Z,2.53
2022-08-28T07:21:18.479Z,1.90
2022-08-28T07:23:46.067Z,2.47
2022-08-28T07:26:15.819Z,2.42
2022-08-28T07:28:43.314Z,2.20
2022-08-28T07:31:18.692Z,2.45
2022-08-28T07:33:45.643Z,2.63
2022-08-28T07:36:29.373Z,2.13
2022-08-28T07:38:58.090Z,1.85
2022-08-28T07:41:28.668Z,1.52
2022-08-28T07:44:14.063Z,2.30
2022-08-28T07:46:41.461Z,2.40
2022-08-28T07:49:08.780Z,2.40
2022-08-28T07:51:36.510Z,1.90
2022-08-28T07:54:04.064Z,2.05
2022-08-28T07:56:31.606Z,2.47
2022-08-28T07:58:59.842Z,2.50
2022-08-28T08:01:29.428Z,1.98
2022-08-28T08:04:01.379Z,2.33
2022-08-28T08:06:33.915Z,2.22
2022-08-28T08:09:01.346Z,2.10
2022-08-28T08:11:27.889Z,2.30
2022-08-28T08:14:04.795Z,2.60
2022-08-28T08:16:35.848Z,2.30
2022-08-28T08:19:03.372Z,3.08
2022-08-28T08:21:30.705Z,2.45
2022-08-28T08:23:58.019Z,2.80
2022-08-28T08:26:28.014Z,2.65
2022-08-28T08:28:55.413Z,2.20
2022-08-28T08:31:24.803Z,2.40
2022-08-28T08:33:54.779Z,2.42
2022-08-28T08:36:23.535Z,2.17
2022-08-28T08:38:59.593Z,2.17
2022-08-28T08:41:39.135Z,2.25
2022-08-28T08:44:42.461Z,2.65
2022-08-28T08:47:40.192Z,2.42
2022-08-28T08:50:11.017Z,2.33
2022-08-28T08:52:50.432Z,2.22
2022-08-28T08:55:28.400Z,2.38
2022-08-28T08:58:30.451Z,2.50
2022-08-28T09:00:57.272Z,2.25
2022-08-28T09:03:27.570Z,2.70
2022-08-28T09:06:00.933Z,2.05
2022-08-28T09:08:38.610Z,2.58
2022-08-28T09:11:25.605Z,2.20
2022-08-28T09:14:06.210Z,2.00
2022-08-28T09:16:38.689Z,2.10
2022-08-28T09:19:09.457Z,2.10
2022-08-28T09:21:41.343Z,2.20
2022-08-28T09:24:28.383Z,2.15
2022-08-28T09:27:04.956Z,2.00
2022-08-28T09:29:38.861Z,2.08
2022-08-28T09:32:26.628Z,2.10
2022-08-28T09:35:06.217Z,2.40
2022-08-28T09:37:35.325Z,2.35
2022-08-28T09:40:19.989Z,2.33
2022-08-28T09:43:21.863Z,2.20
2022-08-28T09:45:55.996Z,2.20
2022-08-28T09:48:30.081Z,2.45
2022-08-28T09:51:21.587Z,2.33
2022-08-28T09:53:50.807Z,1.90
2022-08-28T09:56:35.865Z,1.73
2022-08-28T09:59:05.603Z,1.90
2022-08-28T10:04:01.354Z,1.92
2022-08-28T10:06:32.971Z,2.28
2022-08-28T10:09:35.054Z,2.00
2022-08-28T10:12:46.676Z,2.75
2022-08-28T10:15:50.755Z,2.00
2022-08-28T10:18:55.366Z,2.25
2022-08-28T10:21:33.300Z,2.10
2022-08-28T10:24:08.960Z,2.10
2022-08-28T10:26:43.151Z,2.05
2022-08-28T10:29:20.278Z,2.00
2022-08-28T10:32:14.814Z,2.20
2022-08-28T10:37:27.484Z,1.65
2022-08-28T10:39:57.710Z,2.10
2022-08-28T10:42:35.944Z,2.45
2022-08-28T10:45:06.190Z,2.67
2022-08-28T10:47:39.753Z,3.38
2022-08-28T10:50:18.467Z,1.85
2022-08-28T10:53:00.290Z,1.98
2022-08-28T10:55:34.675Z,2.30
2022-08-28T10:58:24.853Z,2.13
2022-08-28T11:00:55.609Z,2.25
2022-08-28T11:03:34.419Z,2.50
2022-08-28T11:06:08.688Z,1.98
2022-08-28T11:08:38.081Z,2.17
2022-08-28T11:11:11.881Z,1.92
2022-08-28T11:13:45.001Z,2.00
2022-08-28T11:16:18.673Z,1.92
2022-08-28T11:18:59.879Z,2.20
2022-08-28T11:21:43.076Z,1.88
2022-08-28T11:24:31.214Z,2.10
2022-08-28T11:27:06.554Z,1.73
2022-08-28T11:29:57.914Z,1.80
2022-08-28T11:32:46.933Z,1.83
2022-08-28T11:35:35.452Z,2.08
2022-08-28T11:38:01.995Z,1.95
2022-08-28T11:40:28.538Z,1.77
2022-08-28T11:43:16.818Z,2.03
2022-08-28T11:45:46.520Z,2.03
2022-08-28T11:48:36.259Z,1.98
2022-08-28T11:51:18.089Z,2.08
2022-08-28T11:53:47.968Z,1.98
2022-08-28T11:59:07.949Z,2.20
2022-08-28T12:01:37.102Z,2.53
2022-08-28T12:04:12.408Z,2.50
2022-08-28T12:06:52.450Z,2.67
2022-08-28T12:09:48.341Z,2.72
2022-08-28T12:12:20.687Z,2.17
2022-08-28T12:14:47.167Z,2.30
2022-08-28T12:17:20.233Z,1.77
2022-08-28T12:19:55.334Z,2.33
2022-08-28T12:25:03.580Z,2.22
2022-08-28T12:27:31.843Z,1.63
2022-08-28T12:30:00.781Z,2.25
2022-08-28T12:32:45.331Z,2.33
2022-08-28T12:35:26.137Z,2.72
2022-08-28T12:37:55.932Z,2.28
2022-08-28T12:43:00.147Z,1.80
2022-08-28T12:45:31.966Z,2.13
2022-08-28T12:48:02.993Z,2.53
2022-08-28T12:50:38.979Z,2.50
2022-08-28T12:55:34.164Z,2.55
2022-08-28T12:58:00.980Z,2.58
2022-08-28T13:00:33.255Z,2.53
2022-08-28T13:03:01.031Z,2.20
2022-08-28T13:05:34.042Z,2.30
2022-08-28T13:08:08.425Z,2.13
2022-08-28T13:10:55.814Z,2.00
2022-08-28T13:13:45.104Z,1.92
2022-08-28T13:16:35.486Z,2.00
2022-08-28T13:19:05.207Z,2.10
2022-08-28T13:21:52.476Z,1.80
2022-08-28T13:24:29.402Z,1.92
2022-08-28T13:27:21.422Z,2.15
2022-08-28T13:30:21.361Z,2.08
2022-08-28T13:33:19.233Z,1.90
2022-08-28T13:35:49.057Z,1.50
2022-08-28T13:41:05.116Z,1.45
2022-08-28T13:43:45.482Z,1.90
2022-08-28T13:46:14.739Z,1.85
2022-08-28T13:48:42.995Z,1.58
2022-08-28T13:51:20.193Z,1.65
2022-08-28T13:53:48.841Z,1.65
2022-08-28T13:56:17.222Z,1.85
2022-08-28T13:58:56.759Z,1.63
2022-08-28T14:01:45.443Z,1.63
2022-08-28T14:04:20.646Z,2.30
2022-08-28T14:06:47.986Z,2.38
2022-08-28T14:09:15.418Z,2.38
2022-08-28T14:11:48.672Z,1.48
2022-08-28T14:14:16.162Z,2.03
2022-08-28T14:16:44.915Z,1.63
2022-08-28T14:19:11.916Z,1.45
2022-08-28T14:21:40.742Z,1.25
2022-08-28T14:24:08.174Z,1.50
2022-08-28T14:26:35.053Z,1.50
2022-08-28T14:29:03.546Z,1.40
2022-08-28T14:31:30.586Z,1.50
2022-08-28T14:33:58.149Z,1.80
2022-08-28T14:36:27.819Z,1.60
2022-08-28T14:39:02.808Z,1.30
2022-08-28T14:41:32.455Z,1.60
2022-08-28T14:43:59.013Z,1.60
2022-08-28T14:46:31.046Z,1.70
2022-08-28T14:49:03.731Z,1.40
2022-08-28T14:51:32.308Z,7.72
2022-08-28T14:54:00.448Z,6.20
2022-08-28T14:56:27.358Z,1.63
2022-08-28T14:58:59.773Z,1.60
2022-08-28T15:01:40.982Z,2.38
2022-08-28T15:04:12.041Z,2.50
2022-08-28T15:06:39.249Z,1.65
2022-08-28T15:09:05.860Z,2.65
2022-08-28T15:11:32.476Z,1.10
2022-08-28T15:13:59.094Z,1.42
2022-08-28T15:16:30.590Z,1.10
2022-08-28T15:18:58.767Z,1.40
2022-08-28T15:21:33.987Z,1.48
2022-08-28T15:24:03.175Z,1.38
2022-08-28T15:26:30.913Z,1.50
2022-08-28T15:29:02.245Z,1.48
2022-08-28T15:31:35.860Z,5.22
2022-08-28T15:34:13.519Z,1.35
2022-08-28T15:36:42.027Z,1.70
2022-08-28T15:39:28.861Z,1.40
2022-08-28T15:41:56.274Z,1.45
2022-08-28T15:44:22.836Z,1.30
2022-08-28T15:46:52.690Z,1.52
2022-08-28T15:49:20.578Z,1.20
2022-08-28T15:51:50.979Z,1.40
2022-08-28T15:54:17.772Z,1.30
2022-08-28T15:56:44.516Z,1.30
2022-08-28T15:59:12.592Z,1.45
2022-08-28T16:01:39.311Z,1.20
2022-08-28T16:04:06.812Z,1.30
2022-08-28T16:06:34.273Z,1.27
2022-08-28T16:09:01.012Z,1.45
2022-08-28T16:11:28.155Z,0.90
2022-08-28T16:13:59.390Z,1.40
2022-08-28T16:16:26.062Z,1.38
2022-08-28T16:18:55.119Z,1.35
2022-08-28T16:21:21.771Z,1.10
2022-08-28T16:23:48.956Z,1.40
2022-08-28T16:26:15.894Z,1.17
2022-08-28T16:28:43.533Z,1.30
2022-08-28T16:31:19.258Z,1.38
2022-08-28T16:33:48.226Z,1.75
2022-08-28T16:36:15.635Z,2.60
2022-08-28T16:38:45.748Z,1.30
2022-08-28T16:41:18.763Z,1.30
2022-08-28T16:43:46.460Z,5.40
2022-08-28T16:46:17.538Z,1.40
2022-08-28T16:48:45.463Z,1.20
2022-08-28T16:51:12.969Z,1.30
2022-08-28T16:53:43.205Z,1.20
2022-08-28T16:56:11.597Z,1.33
2022-08-28T16:58:39.527Z,1.52
2022-08-28T17:01:08.124Z,1.20
2022-08-28T17:03:38.093Z,1.25
2022-08-28T17:06:20.850Z,1.05
2022-08-28T17:08:48.037Z,1.00
2022-08-28T17:11:15.437Z,1.10
2022-08-28T17:13:42.047Z,1.20
2022-08-28T17:16:09.929Z,1.30
2022-08-28T17:18:37.088Z,1.17
2022-08-28T17:21:22.734Z,1.30
2022-08-28T17:23:49.772Z,1.10
2022-08-28T17:26:17.340Z,1.27
2022-08-28T17:28:44.413Z,1.52
2022-08-28T17:31:11.786Z,1.10
2022-08-28T17:33:42.776Z,1.20
2022-08-28T17:36:21.305Z,1.10
2022-08-28T17:38:59.348Z,1.15
2022-08-28T17:41:27.365Z,1.33
2022-08-28T17:43:53.896Z,1.42
2022-08-28T17:46:20.488Z,1.63
2022-08-28T17:48:49.450Z,1.20
2022-08-28T17:51:33.830Z,1.30
2022-08-28T17:54:09.535Z,1.30
2022-08-28T17:56:36.334Z,1.27
2022-08-28T17:59:03.057Z,1.33
2022-08-28T18:01:29.692Z,1.33
2022-08-28T18:03:56.462Z,1.45
2022-08-28T18:06:23.039Z,1.45
2022-08-28T18:08:51.822Z,1.30
2022-08-28T18:11:19.527Z,1.20
2022-08-28T18:13:46.721Z,1.42
2022-08-28T18:16:13.488Z,1.38
2022-08-28T18:18:40.593Z,1.23
2022-08-28T18:21:08.806Z,1.35
2022-08-28T18:23:35.418Z,1.30
2022-08-28T18:26:02.375Z,1.08
2022-08-28T18:28:28.967Z,1.10
2022-08-28T18:30:55.536Z,1.20
2022-08-28T18:33:24.128Z,1.30
2022-08-28T18:35:51.856Z,1.33
2022-08-28T18:38:19.948Z,1.38
2022-08-28T18:40:46.928Z,1.23
2022-08-28T18:43:14.023Z,1.27
2022-08-28T18:45:40.688Z,1.25
2022-08-28T18:48:10.337Z,1.58
2022-08-28T18:50:37.220Z,1.33
2022-08-28T18:53:04.589Z,1.20
2022-08-28T18:55:32.675Z,1.48
2022-08-28T18:58:01.267Z,1.33
2022-08-28T19:00:28.217Z,1.38
2022-08-28T19:02:55.328Z,1.40
2022-08-28T19:05:21.976Z,1.00
2022-08-28T19:07:48.839Z,1.25
2022-08-28T19:10:32.789Z,1.38
2022-08-28T19:13:01.339Z,1.30
2022-08-28T19:15:28.613Z,1.50
2022-08-28T19:17:55.620Z,1.40
2022-08-28T19:20:22.620Z,1.33
2022-08-28T19:22:49.773Z,1.73
2022-08-28T19:25:28.632Z,1.40
2022-08-28T19:27:59.633Z,1.38
2022-08-28T19:30:28.247Z,1.77
2022-08-28T19:32:55.028Z,1.27
2022-08-28T19:35:24.321Z,1.20
2022-08-28T19:37:51.844Z,0.98
2022-08-28T19:40:18.449Z,1.48
2022-08-28T19:42:45.071Z,1.30
2022-08-28T19:45:13.837Z,1.45
2022-08-28T19:47:40.400Z,1.38
2022-08-28T19:50:10.264Z,1.50
2022-08-28T19:52:36.903Z,1.45
2022-08-28T19:55:05.928Z,1.38
2022-08-28T19:57:33.823Z,1.33
2022-08-28T20:00:00.768Z,1.30
2022-08-28T20:02:28.629Z,1.33
2022-08-28T20:04:55.428Z,1.30
2022-08-28T20:07:22.183Z,1.30
2022-08-28T20:09:48.752Z,1.27
2022-08-28T20:12:15.343Z,1.38
2022-08-28T20:14:42.622Z,0.98
2022-08-28T20:17:09.508Z,1.10
2022-08-28T20:19:36.176Z,1.70
2022-08-28T20:22:03.816Z,1.20
2022-08-28T20:24:30.441Z,1.23
2022-08-28T20:26:57.054Z,1.48
2022-08-28T20:29:24.272Z,1.55
2022-08-28T20:31:51.713Z,1.70
2022-08-28T20:34:19.740Z,1.85
2022-08-28T20:36:46.735Z,1.77
2022-08-28T20:39:14.807Z,1.80
2022-08-28T20:41:42.973Z,1.55
2022-08-28T20:44:12.694Z,1.58
2022-08-28T20:46:42.109Z,1.50
2022-08-28T20:49:10.298Z,1.60
2022-08-28T20:51:55.442Z,1.80
2022-08-28T20:54:31.189Z,1.50
2022-08-28T20:57:02.485Z,2.08
2022-08-28T20:59:39.518Z,1.55
2022-08-28T21:02:13.858Z,1.42
2022-08-28T21:04:42.019Z,1.55
2022-08-28T21:07:09.623Z,1.67
2022-08-28T21:09:52.666Z,1.90
2022-08-28T21:12:24.843Z,1.50
2022-08-28T21:14:52.788Z,2.00
2022-08-28T21:17:22.662Z,1.65
2022-08-28T21:22:22.380Z,1.17
2022-08-28T21:24:48.940Z,1.65
2022-08-28T21:27:15.518Z,1.38
2022-08-28T21:29:45.544Z,1.60
2022-08-28T21:32:12.079Z,1.40
2022-08-28T21:34:38.595Z,1.05
2022-08-28T21:37:06.277Z,1.30
2022-08-28T21:39:33.107Z,1.25
2022-08-28T21:41:59.643Z,1.50
2022-08-28T21:44:26.150Z,1.67
2022-08-28T21:46:52.656Z,1.60
2022-08-28T21:49:19.288Z,1.63
2022-08-28T21:51:45.921Z,1.27
2022-08-28T21:54:12.479Z,1.42
2022-08-28T21:56:39.156Z,1.10
2022-08-28T21:59:06.346Z,1.20
2022-08-28T22:01:33.020Z,1.33
2022-08-28T22:03:59.705Z,1.30
2022-08-28T22:06:26.761Z,1.00
2022-08-28T22:08:55.214Z,1.02
2022-08-28T22:11:24.858Z,1.30
2022-08-28T22:13:51.605Z,1.42
2022-08-28T22:16:18.266Z,1.30
2022-08-28T22:18:44.863Z,1.35
2022-08-28T22:21:35.255Z,1.13
2022-08-28T22:24:02.017Z,1.38
2022-08-28T22:26:28.820Z,1.30
2022-08-28T22:28:56.028Z,1.35
2022-08-28T22:31:23.211Z,1.20
2022-08-28T22:33:50.129Z,1.10
2022-08-28T22:36:17.553Z,1.10
2022-08-28T22:38:47.067Z,1.13
2022-08-28T22:41:20.266Z,1.08
2022-08-28T22:43:51.224Z,1.20
2022-08-28T22:46:20.406Z,1.15
2022-08-28T22:48:47.037Z,1.13
2022-08-28T22:51:18.448Z,1.08
2022-08-28T22:53:46.711Z,1.23
2022-08-28T22:56:14.319Z,1.08
2022-08-28T22:58:41.711Z,1.30
2022-08-28T23:01:13.245Z,1.20
2022-08-28T23:03:40.683Z,1.20
2022-08-28T23:06:07.789Z,1.23
2022-08-28T23:08:34.491Z,1.13
2022-08-28T23:11:01.354Z,1.00
2022-08-28T23:13:29.447Z,1.20
2022-08-28T23:15:56.217Z,1.35
2022-08-28T23:18:22.857Z,1.13
2022-08-28T23:20:50.656Z,1.35
2022-08-28T23:23:18.650Z,1.38
2022-08-28T23:25:45.139Z,1.35
2022-08-28T23:28:11.759Z,1.20
2022-08-28T23:30:39.052Z,1.00
2022-08-28T23:33:08.533Z,1.50
2022-08-28T23:35:36.092Z,1.40
2022-08-28T23:38:03.946Z,1.27
2022-08-28T23:40:33.150Z,1.10
2022-08-28T23:43:00.879Z,1.00
2022-08-28T23:45:27.542Z,1.10
2022-08-28T23:47:54.881Z,1.17
2022-08-28T23:50:23.501Z,1.40
2022-08-28T23:52:50.155Z,1.48
2022-08-28T23:55:18.709Z,1.00
2022-08-28T23:57:45.820Z,1.15
